Airfield :
LOGIN :

Register | Disclaimer

   EN    FR    IT 

 










Legend :    VFR   Marginal VFR   IFR   Intensive IFR   Very Intensive IFR
Visi :
Ceiling :
>= 8 km
>= 3000ft
5 to 8 km
1000 to 3000 ft
1500m to 5 km
500 to 1000 ft
800 to 1500m
200 to 500 ft
< 800m
< 200 ft
Symbols :   Thunderstorms  Fog  Heavy snow  Heavy precipitations  Wind > 20 kt
SIGMETs :     Misc.  Thunderstorms  Icing  Turbulence  Mountain Waves  Volcanic Ashes







- Airport Elevation : 80 ft
- IATA code : LPL
- Download approach charts


EGGP - Liverpool John Lennon

CURRENT METAR :
  • 131650Z 26014KT 9999 VCSH SCT045 04/02 Q0988

EXPIRED METARs :
  • 131620Z 26016KT 9999 VCSH FEW033 SCT045 05/03 Q0989
  • 131550Z 27018KT 9999 VCSH FEW020 SCT044 05/03 Q0989
  • 131520Z 26013KT 9999 VCSH SCT020 06/04 Q0989
  • 131450Z 26015KT 9999 -SHRA SCT022 SCT030 05/02 Q0989
  • 131420Z 28019KT 9999 -SHRA SCT016 SCT025 06/04 Q0989
  • 131350Z 28018KT 9999 VCSH SCT016 BKN026 06/05 Q0989

TAF TAF EGGP
Valid from the 13 at 12:00 until the 14 at 12:00 UTC


131103Z 1312/1412 19009KT 9999 SCT016
BECMG 1312/1315 26018KT
TEMPO 1312/1412 6000 SHRA BKN012
TEMPO 1312/1409 28020G30KT
PROB30
TEMPO 1312/1314 4000 +SHRA BKN009
PROB30
TEMPO 1316/1406 3000 +SHRAGS BKN006 BKN020CB
ATIS : +44 151 907 2000 (option 5 or ext 5150)
Met : +44 871 750 5150
No reported NOTAMs for that airfield.
1 SIGMET reported for the London FIR (EGTT) :
 
Severe turbulence
EGTT SIGMET 02 VALID 131500/131900 EGRR
EGTT LONDON FIR SEV TURB FCST W OF LINE N5204 W00600 - N4903 W00654 SFC/FL060 MOV E 50KT NC=



MET'MAP, your aeronautical weather chart ! - Copyright ORBIFLY December 2007 - Disclaimer

ORBIFLY MET'MAP TEAM :

Programming & Development : Alexandra Zaïnal
Concept & Development : Baudouin d'Aumeries
Co-Development & Prog : Marc-Olivier Méhu
Technical & hardware support : Manuel Goepfert

Contact : metmap@orbifly.com




SOURCES & CREDITS :

   NOAA